sensor_id;sensor_type;location;lat;lon;timestamp;P1;durP1;ratioP1;P2;durP2;ratioP2
13687;SDS011;6916;51.504;7.416;2022-12-07T00:03:09;33.33;;;25.40;;
13687;SDS011;6916;51.504;7.416;2022-12-07T00:08:31;36.27;;;27.93;;
13687;SDS011;6916;51.504;7.416;2022-12-07T00:13:58;33.23;;;25.80;;
13687;SDS011;6916;51.504;7.416;2022-12-07T00:19:21;35.53;;;27.33;;
13687;SDS011;6916;51.504;7.416;2022-12-07T00:24:44;31.70;;;24.17;;
13687;SDS011;6916;51.504;7.416;2022-12-07T00:30:06;33.00;;;25.83;;
13687;SDS011;6916;51.504;7.416;2022-12-07T00:35:28;35.23;;;25.50;;
13687;SDS011;6916;51.504;7.416;2022-12-07T00:40:57;33.90;;;25.23;;
13687;SDS011;6916;51.504;7.416;2022-12-07T00:46:26;32.83;;;25.97;;
13687;SDS011;6916;51.504;7.416;2022-12-07T00:51:48;35.80;;;25.40;;
13687;SDS011;6916;51.504;7.416;2022-12-07T00:57:11;31.43;;;24.27;;
13687;SDS011;6916;51.504;7.416;2022-12-07T01:02:33;27.60;;;22.37;;
13687;SDS011;6916;51.504;7.416;2022-12-07T01:07:55;29.00;;;23.37;;
13687;SDS011;6916;51.504;7.416;2022-12-07T01:13:17;33.20;;;23.33;;
13687;SDS011;6916;51.504;7.416;2022-12-07T01:18:39;28.77;;;23.67;;
13687;SDS011;6916;51.504;7.416;2022-12-07T01:24:01;31.03;;;24.87;;
13687;SDS011;6916;51.504;7.416;2022-12-07T01:29:24;32.60;;;25.30;;
13687;SDS011;6916;51.504;7.416;2022-12-07T01:34:47;30.63;;;24.47;;
13687;SDS011;6916;51.504;7.416;2022-12-07T01:40:10;32.53;;;25.90;;
13687;SDS011;6916;51.504;7.416;2022-12-07T01:45:42;28.10;;;24.07;;
13687;SDS011;6916;51.504;7.416;2022-12-07T01:51:05;29.53;;;25.00;;
13687;SDS011;6916;51.504;7.416;2022-12-07T01:56:30;32.20;;;24.83;;
13687;SDS011;6916;51.504;7.416;2022-12-07T02:01:54;39.17;;;26.33;;
13687;SDS011;6916;51.504;7.416;2022-12-07T02:07:17;32.70;;;25.20;;
13687;SDS011;6916;51.504;7.416;2022-12-07T02:12:40;28.43;;;23.87;;
13687;SDS011;6916;51.504;7.416;2022-12-07T02:24:13;29.47;;;23.40;;
13687;SDS011;6916;51.504;7.416;2022-12-07T02:29:47;28.40;;;23.40;;
13687;SDS011;6916;51.504;7.416;2022-12-07T02:35:20;30.30;;;23.77;;
13687;SDS011;6916;51.504;7.416;2022-12-07T02:40:50;27.90;;;22.77;;
13687;SDS011;6916;51.504;7.416;2022-12-07T02:46:15;31.00;;;23.67;;
13687;SDS011;6916;51.504;7.416;2022-12-07T02:51:40;28.87;;;22.73;;
13687;SDS011;6916;51.504;7.416;2022-12-07T02:57:07;27.97;;;21.90;;
13687;SDS011;6916;51.504;7.416;2022-12-07T03:02:49;31.03;;;22.93;;
13687;SDS011;6916;51.504;7.416;2022-12-07T03:14:13;29.93;;;21.37;;
13687;SDS011;6916;51.504;7.416;2022-12-07T03:19:40;24.97;;;19.23;;
13687;SDS011;6916;51.504;7.416;2022-12-07T03:25:04;22.07;;;18.60;;
13687;SDS011;6916;51.504;7.416;2022-12-07T03:30:29;24.70;;;19.80;;
13687;SDS011;6916;51.504;7.416;2022-12-07T03:52:34;27.93;;;21.87;;
13687;SDS011;6916;51.504;7.416;2022-12-07T03:58:02;25.97;;;21.60;;
13687;SDS011;6916;51.504;7.416;2022-12-07T04:03:28;30.87;;;21.67;;
13687;SDS011;6916;51.504;7.416;2022-12-07T04:08:50;24.87;;;19.47;;
13687;SDS011;6916;51.504;7.416;2022-12-07T04:14:12;24.20;;;19.40;;
13687;SDS011;6916;51.504;7.416;2022-12-07T04:19:40;28.80;;;20.77;;
13687;SDS011;6916;51.504;7.416;2022-12-07T04:25:02;27.53;;;21.53;;
13687;SDS011;6916;51.504;7.416;2022-12-07T04:30:25;26.53;;;20.10;;
13687;SDS011;6916;51.504;7.416;2022-12-07T04:35:47;24.50;;;19.50;;
13687;SDS011;6916;51.504;7.416;2022-12-07T04:41:09;21.40;;;17.77;;
13687;SDS011;6916;51.504;7.416;2022-12-07T04:46:31;23.07;;;17.83;;
13687;SDS011;6916;51.504;7.416;2022-12-07T04:51:53;23.30;;;18.50;;
13687;SDS011;6916;51.504;7.416;2022-12-07T04:57:15;20.50;;;18.30;;
13687;SDS011;6916;51.504;7.416;2022-12-07T05:02:37;25.20;;;17.23;;
13687;SDS011;6916;51.504;7.416;2022-12-07T05:07:59;22.77;;;17.43;;
13687;SDS011;6916;51.504;7.416;2022-12-07T05:13:21;27.60;;;18.40;;
13687;SDS011;6916;51.504;7.416;2022-12-07T05:18:44;26.50;;;18.70;;
13687;SDS011;6916;51.504;7.416;2022-12-07T05:24:06;24.90;;;17.83;;
13687;SDS011;6916;51.504;7.416;2022-12-07T05:29:29;19.03;;;17.00;;
13687;SDS011;6916;51.504;7.416;2022-12-07T05:34:51;21.20;;;16.93;;
13687;SDS011;6916;51.504;7.416;2022-12-07T05:40:16;21.07;;;17.00;;
13687;SDS011;6916;51.504;7.416;2022-12-07T05:45:38;24.97;;;17.87;;
13687;SDS011;6916;51.504;7.416;2022-12-07T05:51:00;23.77;;;18.67;;
13687;SDS011;6916;51.504;7.416;2022-12-07T05:56:23;26.43;;;18.77;;
13687;SDS011;6916;51.504;7.416;2022-12-07T06:01:46;27.80;;;19.07;;
13687;SDS011;6916;51.504;7.416;2022-12-07T06:07:08;23.53;;;17.97;;
13687;SDS011;6916;51.504;7.416;2022-12-07T06:12:30;23.67;;;15.93;;
13687;SDS011;6916;51.504;7.416;2022-12-07T06:17:55;23.03;;;16.33;;
13687;SDS011;6916;51.504;7.416;2022-12-07T06:23:17;22.20;;;14.33;;
13687;SDS011;6916;51.504;7.416;2022-12-07T06:28:39;23.57;;;14.97;;
13687;SDS011;6916;51.504;7.416;2022-12-07T06:34:03;23.43;;;16.03;;
13687;SDS011;6916;51.504;7.416;2022-12-07T06:39:27;21.33;;;15.47;;
13687;SDS011;6916;51.504;7.416;2022-12-07T06:44:50;23.17;;;15.17;;
13687;SDS011;6916;51.504;7.416;2022-12-07T06:50:12;23.10;;;14.87;;
13687;SDS011;6916;51.504;7.416;2022-12-07T06:55:34;24.57;;;15.87;;
13687;SDS011;6916;51.504;7.416;2022-12-07T07:00:56;23.23;;;16.13;;
13687;SDS011;6916;51.504;7.416;2022-12-07T07:06:18;22.87;;;14.73;;
13687;SDS011;6916;51.504;7.416;2022-12-07T07:11:40;18.83;;;13.40;;
13687;SDS011;6916;51.504;7.416;2022-12-07T07:17:02;18.07;;;13.30;;
13687;SDS011;6916;51.504;7.416;2022-12-07T07:22:24;14.73;;;11.53;;
13687;SDS011;6916;51.504;7.416;2022-12-07T07:27:47;17.43;;;12.17;;
13687;SDS011;6916;51.504;7.416;2022-12-07T07:33:09;19.97;;;10.70;;
13687;SDS011;6916;51.504;7.416;2022-12-07T07:38:31;22.97;;;10.37;;
13687;SDS011;6916;51.504;7.416;2022-12-07T07:43:53;16.77;;;10.77;;
13687;SDS011;6916;51.504;7.416;2022-12-07T07:49:15;15.73;;;9.63;;
13687;SDS011;6916;51.504;7.416;2022-12-07T07:54:37;13.43;;;8.90;;
13687;SDS011;6916;51.504;7.416;2022-12-07T07:59:59;15.43;;;9.57;;
13687;SDS011;6916;51.504;7.416;2022-12-07T08:05:21;16.43;;;10.10;;
13687;SDS011;6916;51.504;7.416;2022-12-07T08:10:44;16.90;;;9.70;;
13687;SDS011;6916;51.504;7.416;2022-12-07T08:16:07;16.77;;;9.83;;
13687;SDS011;6916;51.504;7.416;2022-12-07T08:21:31;14.63;;;9.23;;
13687;SDS011;6916;51.504;7.416;2022-12-07T08:26:53;11.40;;;8.83;;
13687;SDS011;6916;51.504;7.416;2022-12-07T08:32:15;14.37;;;8.13;;
13687;SDS011;6916;51.504;7.416;2022-12-07T08:37:37;10.97;;;7.70;;
13687;SDS011;6916;51.504;7.416;2022-12-07T08:42:59;11.67;;;7.87;;
13687;SDS011;6916;51.504;7.416;2022-12-07T08:48:21;13.67;;;7.87;;
13687;SDS011;6916;51.504;7.416;2022-12-07T08:53:46;11.20;;;7.27;;
13687;SDS011;6916;51.504;7.416;2022-12-07T08:59:08;13.00;;;7.47;;
13687;SDS011;6916;51.504;7.416;2022-12-07T09:04:30;11.87;;;7.30;;
13687;SDS011;6916;51.504;7.416;2022-12-07T09:09:53;12.23;;;7.30;;
13687;SDS011;6916;51.504;7.416;2022-12-07T09:15:15;12.57;;;6.73;;
13687;SDS011;6916;51.504;7.416;2022-12-07T09:20:37;9.43;;;7.07;;
13687;SDS011;6916;51.504;7.416;2022-12-07T09:26:03;11.07;;;7.03;;
13687;SDS011;6916;51.504;7.416;2022-12-07T09:31:26;15.63;;;7.97;;
13687;SDS011;6916;51.504;7.416;2022-12-07T09:36:48;15.50;;;8.37;;
13687;SDS011;6916;51.504;7.416;2022-12-07T09:42:10;13.60;;;8.87;;
13687;SDS011;6916;51.504;7.416;2022-12-07T09:47:46;14.13;;;8.30;;
13687;SDS011;6916;51.504;7.416;2022-12-07T09:53:14;18.07;;;8.70;;
13687;SDS011;6916;51.504;7.416;2022-12-07T09:58:38;17.90;;;10.53;;
13687;SDS011;6916;51.504;7.416;2022-12-07T10:04:06;14.37;;;9.40;;
13687;SDS011;6916;51.504;7.416;2022-12-07T10:09:32;15.23;;;10.50;;
13687;SDS011;6916;51.504;7.416;2022-12-07T10:15:02;16.83;;;11.10;;
13687;SDS011;6916;51.504;7.416;2022-12-07T10:20:26;20.10;;;10.87;;
13687;SDS011;6916;51.504;7.416;2022-12-07T10:25:48;14.23;;;11.37;;
13687;SDS011;6916;51.504;7.416;2022-12-07T10:31:18;15.53;;;10.10;;
13687;SDS011;6916;51.504;7.416;2022-12-07T10:36:42;16.47;;;10.00;;
13687;SDS011;6916;51.504;7.416;2022-12-07T10:42:04;13.00;;;8.50;;
13687;SDS011;6916;51.504;7.416;2022-12-07T10:47:38;14.17;;;8.17;;
13687;SDS011;6916;51.504;7.416;2022-12-07T11:04:52;15.47;;;6.67;;
13687;SDS011;6916;51.504;7.416;2022-12-07T11:21:57;7.43;;;4.77;;
13687;SDS011;6916;51.504;7.416;2022-12-07T11:32:53;15.93;;;6.30;;
13687;SDS011;6916;51.504;7.416;2022-12-07T11:38:21;11.17;;;6.10;;
13687;SDS011;6916;51.504;7.416;2022-12-07T11:55:48;9.67;;;5.97;;
13687;SDS011;6916;51.504;7.416;2022-12-07T12:06:35;10.87;;;4.77;;
13687;SDS011;6916;51.504;7.416;2022-12-07T12:23:35;8.73;;;3.83;;
13687;SDS011;6916;51.504;7.416;2022-12-07T12:29:02;4.13;;;2.90;;
13687;SDS011;6916;51.504;7.416;2022-12-07T12:34:30;7.87;;;3.20;;
13687;SDS011;6916;51.504;7.416;2022-12-07T12:45:36;3.67;;;2.13;;
13687;SDS011;6916;51.504;7.416;2022-12-07T13:08:02;4.67;;;2.70;;
13687;SDS011;6916;51.504;7.416;2022-12-07T13:13:30;9.10;;;2.87;;
13687;SDS011;6916;51.504;7.416;2022-12-07T13:18:54;5.67;;;3.00;;
13687;SDS011;6916;51.504;7.416;2022-12-07T13:24:16;5.80;;;1.70;;
13687;SDS011;6916;51.504;7.416;2022-12-07T13:29:38;4.87;;;1.37;;
13687;SDS011;6916;51.504;7.416;2022-12-07T13:35:00;6.37;;;1.47;;
13687;SDS011;6916;51.504;7.416;2022-12-07T13:46:30;4.60;;;1.73;;
13687;SDS011;6916;51.504;7.416;2022-12-07T13:52:12;7.93;;;2.17;;
13687;SDS011;6916;51.504;7.416;2022-12-07T13:57:49;7.03;;;1.80;;
13687;SDS011;6916;51.504;7.416;2022-12-07T14:08:35;7.40;;;2.20;;
13687;SDS011;6916;51.504;7.416;2022-12-07T14:13:58;5.23;;;1.47;;
13687;SDS011;6916;51.504;7.416;2022-12-07T14:30:29;4.57;;;2.07;;
13687;SDS011;6916;51.504;7.416;2022-12-07T14:35:52;3.33;;;1.40;;
13687;SDS011;6916;51.504;7.416;2022-12-07T14:41:19;3.37;;;1.63;;
13687;SDS011;6916;51.504;7.416;2022-12-07T14:47:02;2.73;;;1.40;;
13687;SDS011;6916;51.504;7.416;2022-12-07T14:52:28;3.60;;;1.40;;
13687;SDS011;6916;51.504;7.416;2022-12-07T14:57:51;3.10;;;1.53;;
13687;SDS011;6916;51.504;7.416;2022-12-07T15:03:13;5.73;;;1.77;;
13687;SDS011;6916;51.504;7.416;2022-12-07T15:08:36;3.37;;;2.10;;
13687;SDS011;6916;51.504;7.416;2022-12-07T15:13:58;3.90;;;2.00;;
13687;SDS011;6916;51.504;7.416;2022-12-07T15:19:35;4.97;;;2.53;;
13687;SDS011;6916;51.504;7.416;2022-12-07T15:24:57;7.47;;;2.30;;
13687;SDS011;6916;51.504;7.416;2022-12-07T15:30:19;4.93;;;2.83;;
13687;SDS011;6916;51.504;7.416;2022-12-07T15:35:44;7.13;;;3.20;;
13687;SDS011;6916;51.504;7.416;2022-12-07T15:41:07;7.07;;;2.90;;
13687;SDS011;6916;51.504;7.416;2022-12-07T15:46:30;6.80;;;3.83;;
13687;SDS011;6916;51.504;7.416;2022-12-07T15:51:53;6.20;;;3.70;;
13687;SDS011;6916;51.504;7.416;2022-12-07T15:57:15;8.77;;;4.80;;
13687;SDS011;6916;51.504;7.416;2022-12-07T16:02:37;9.43;;;5.50;;
13687;SDS011;6916;51.504;7.416;2022-12-07T16:07:59;6.33;;;4.67;;
13687;SDS011;6916;51.504;7.416;2022-12-07T16:13:21;7.30;;;4.53;;
13687;SDS011;6916;51.504;7.416;2022-12-07T16:18:44;6.77;;;4.20;;
13687;SDS011;6916;51.504;7.416;2022-12-07T16:24:07;8.73;;;4.23;;
13687;SDS011;6916;51.504;7.416;2022-12-07T16:29:29;7.13;;;4.13;;
13687;SDS011;6916;51.504;7.416;2022-12-07T16:34:51;9.67;;;4.00;;
13687;SDS011;6916;51.504;7.416;2022-12-07T16:40:13;7.87;;;3.37;;
13687;SDS011;6916;51.504;7.416;2022-12-07T16:45:36;9.20;;;4.70;;
13687;SDS011;6916;51.504;7.416;2022-12-07T16:50:58;10.07;;;4.40;;
13687;SDS011;6916;51.504;7.416;2022-12-07T16:56:25;7.10;;;4.07;;
13687;SDS011;6916;51.504;7.416;2022-12-07T17:01:51;7.90;;;4.50;;
13687;SDS011;6916;51.504;7.416;2022-12-07T17:07:14;6.33;;;4.30;;
13687;SDS011;6916;51.504;7.416;2022-12-07T17:12:36;10.20;;;4.10;;
13687;SDS011;6916;51.504;7.416;2022-12-07T17:17:58;7.40;;;4.70;;
13687;SDS011;6916;51.504;7.416;2022-12-07T17:23:21;5.93;;;4.13;;
13687;SDS011;6916;51.504;7.416;2022-12-07T17:28:43;5.67;;;3.93;;
13687;SDS011;6916;51.504;7.416;2022-12-07T17:34:12;7.20;;;4.50;;
13687;SDS011;6916;51.504;7.416;2022-12-07T17:39:35;9.87;;;4.20;;
13687;SDS011;6916;51.504;7.416;2022-12-07T17:44:59;8.43;;;3.87;;
13687;SDS011;6916;51.504;7.416;2022-12-07T17:50:21;7.70;;;4.33;;
13687;SDS011;6916;51.504;7.416;2022-12-07T17:56:03;7.20;;;4.57;;
13687;SDS011;6916;51.504;7.416;2022-12-07T18:01:25;5.60;;;4.37;;
13687;SDS011;6916;51.504;7.416;2022-12-07T18:06:48;6.27;;;4.10;;
13687;SDS011;6916;51.504;7.416;2022-12-07T18:12:10;4.43;;;3.10;;
13687;SDS011;6916;51.504;7.416;2022-12-07T18:17:34;5.00;;;1.73;;
13687;SDS011;6916;51.504;7.416;2022-12-07T18:22:56;3.30;;;1.70;;
13687;SDS011;6916;51.504;7.416;2022-12-07T18:28:19;5.40;;;2.70;;
13687;SDS011;6916;51.504;7.416;2022-12-07T18:33:42;2.97;;;2.57;;
13687;SDS011;6916;51.504;7.416;2022-12-07T18:39:05;3.27;;;2.27;;
13687;SDS011;6916;51.504;7.416;2022-12-07T18:44:28;5.47;;;2.97;;
13687;SDS011;6916;51.504;7.416;2022-12-07T18:49:50;6.90;;;3.27;;
13687;SDS011;6916;51.504;7.416;2022-12-07T18:55:12;4.73;;;3.57;;
13687;SDS011;6916;51.504;7.416;2022-12-07T19:00:34;5.07;;;3.60;;
13687;SDS011;6916;51.504;7.416;2022-12-07T19:05:56;6.47;;;4.30;;
13687;SDS011;6916;51.504;7.416;2022-12-07T19:11:19;7.37;;;5.57;;
13687;SDS011;6916;51.504;7.416;2022-12-07T19:17:05;5.87;;;5.20;;
13687;SDS011;6916;51.504;7.416;2022-12-07T19:22:29;8.97;;;5.17;;
13687;SDS011;6916;51.504;7.416;2022-12-07T19:27:51;8.50;;;5.87;;
13687;SDS011;6916;51.504;7.416;2022-12-07T19:33:13;7.40;;;5.77;;
13687;SDS011;6916;51.504;7.416;2022-12-07T19:38:35;8.57;;;6.53;;
13687;SDS011;6916;51.504;7.416;2022-12-07T19:44:02;13.93;;;7.20;;
13687;SDS011;6916;51.504;7.416;2022-12-07T19:49:28;12.20;;;7.83;;
13687;SDS011;6916;51.504;7.416;2022-12-07T19:54:51;12.50;;;8.80;;
13687;SDS011;6916;51.504;7.416;2022-12-07T20:00:14;10.47;;;9.03;;
13687;SDS011;6916;51.504;7.416;2022-12-07T20:05:36;12.07;;;8.17;;
13687;SDS011;6916;51.504;7.416;2022-12-07T20:10:58;8.90;;;7.57;;
13687;SDS011;6916;51.504;7.416;2022-12-07T20:16:20;11.10;;;7.63;;
13687;SDS011;6916;51.504;7.416;2022-12-07T20:21:43;11.23;;;8.13;;
13687;SDS011;6916;51.504;7.416;2022-12-07T20:27:06;10.37;;;7.43;;
13687;SDS011;6916;51.504;7.416;2022-12-07T20:32:28;12.60;;;8.07;;
13687;SDS011;6916;51.504;7.416;2022-12-07T20:37:50;10.93;;;8.13;;
13687;SDS011;6916;51.504;7.416;2022-12-07T20:43:13;11.90;;;9.03;;
13687;SDS011;6916;51.504;7.416;2022-12-07T20:48:35;16.83;;;9.50;;
13687;SDS011;6916;51.504;7.416;2022-12-07T20:53:57;12.30;;;9.13;;
13687;SDS011;6916;51.504;7.416;2022-12-07T20:59:20;12.07;;;9.63;;
13687;SDS011;6916;51.504;7.416;2022-12-07T21:04:42;15.37;;;12.33;;
13687;SDS011;6916;51.504;7.416;2022-12-07T21:10:04;17.33;;;13.20;;
13687;SDS011;6916;51.504;7.416;2022-12-07T21:15:27;16.67;;;12.97;;
13687;SDS011;6916;51.504;7.416;2022-12-07T21:20:49;15.67;;;13.50;;
13687;SDS011;6916;51.504;7.416;2022-12-07T21:26:12;18.57;;;14.93;;
13687;SDS011;6916;51.504;7.416;2022-12-07T21:31:36;16.20;;;14.50;;
13687;SDS011;6916;51.504;7.416;2022-12-07T21:36:59;21.73;;;15.93;;
13687;SDS011;6916;51.504;7.416;2022-12-07T21:42:21;23.20;;;16.10;;
13687;SDS011;6916;51.504;7.416;2022-12-07T21:47:44;19.47;;;16.33;;
13687;SDS011;6916;51.504;7.416;2022-12-07T21:53:06;19.47;;;17.40;;
13687;SDS011;6916;51.504;7.416;2022-12-07T21:58:28;21.93;;;17.93;;
13687;SDS011;6916;51.504;7.416;2022-12-07T22:03:51;21.40;;;18.03;;
13687;SDS011;6916;51.504;7.416;2022-12-07T22:09:14;23.17;;;17.93;;
13687;SDS011;6916;51.504;7.416;2022-12-07T22:14:36;24.37;;;19.57;;
13687;SDS011;6916;51.504;7.416;2022-12-07T22:20:17;24.17;;;20.10;;
13687;SDS011;6916;51.504;7.416;2022-12-07T22:25:39;22.70;;;18.60;;
13687;SDS011;6916;51.504;7.416;2022-12-07T22:31:02;21.10;;;17.37;;
13687;SDS011;6916;51.504;7.416;2022-12-07T22:36:25;21.63;;;18.33;;
13687;SDS011;6916;51.504;7.416;2022-12-07T22:41:49;23.53;;;18.43;;
13687;SDS011;6916;51.504;7.416;2022-12-07T22:47:14;23.63;;;17.47;;
13687;SDS011;6916;51.504;7.416;2022-12-07T22:52:37;22.50;;;17.43;;
13687;SDS011;6916;51.504;7.416;2022-12-07T22:57:59;22.23;;;17.27;;
13687;SDS011;6916;51.504;7.416;2022-12-07T23:03:27;20.50;;;15.87;;
13687;SDS011;6916;51.504;7.416;2022-12-07T23:08:50;18.47;;;16.13;;
13687;SDS011;6916;51.504;7.416;2022-12-07T23:14:13;26.43;;;15.23;;
13687;SDS011;6916;51.504;7.416;2022-12-07T23:19:37;19.83;;;14.17;;
13687;SDS011;6916;51.504;7.416;2022-12-07T23:24:59;17.67;;;14.27;;
13687;SDS011;6916;51.504;7.416;2022-12-07T23:30:21;16.07;;;13.73;;
13687;SDS011;6916;51.504;7.416;2022-12-07T23:35:43;18.27;;;12.97;;
13687;SDS011;6916;51.504;7.416;2022-12-07T23:41:06;22.07;;;11.87;;
13687;SDS011;6916;51.504;7.416;2022-12-07T23:46:32;13.50;;;11.33;;
13687;SDS011;6916;51.504;7.416;2022-12-07T23:51:54;18.87;;;11.13;;
13687;SDS011;6916;51.504;7.416;2022-12-07T23:57:16;15.87;;;11.60;;
